Accueil
METAR-TAF:

METAR-TAF

Aéroports :

Cerklje ob Krki, Slovénie

latitude: 45-53-59N, longitude: 15-30-55E, altitude: 157 m

Observation

Le bulletin a été fait il y a 40 minutes, à 16:00 UTC
Vent 4 kt de est/nord-est
Température 24°C
Humidité 57%
Pression 1009 hPa
Visibilité 10 km ou plus
pas de nuages en-dessous de 1500 mètres et pas de cumulonimbus.

METAR: LJCE 191600Z 07004KT CAVOK 24/15 Q1009 RMK BLU

Heure: 18:40 (16:40 UTC)

Prévision

Le bulletin a été fait il y a 2 heures et 40 minutes, à 14:00 UTC
Prévision valable du 19 à 15 UTC au 20 à 00 UTC
Vent 6 kt de sud/sud-est
Visibilité 10 km ou plus
pas de nuages en-dessous de 1500 mètres et pas de cumulonimbus.
Probabilité 40% :
Temporairement
du 19 à 15 UTC au 19 à 17 UTC
Nuages épars à une hauteur de 5000 ft, Cumulus congestus.
averses de pluie,

TAF: LJCE 191400Z 1915/2000 15006KT CAVOK PROB40 TEMPO 1915/1917 SHRA SCT050TCU

Observations et prévisions météorologiques de plus de 4000 aéroports (messages METAR et TAF).

Les stations disponibles sont représentées par des disques jaunes et rouges sur la carte.

Passer la souris dessus pour voir le nom de la station.

Cliquer dessus pour voir les observations et prévisions météorologiques.

Pour changer de carte: cliquez sur les boutons verts avec une croix noire pour zoomer, sur le bouton vert avec un tiret pour effectuer un zoom arrière, ou sur les flèches vertes pour les cartes adjacentes.


METAR-TAF: